createdAt,value
2019-05-18T00:01:32.640Z,10.89
2019-05-18T00:01:59.413Z,10.81
2019-05-18T00:02:59.393Z,10.93
2019-05-18T00:03:59.375Z,10.87
2019-05-18T00:04:59.358Z,10.94
2019-05-18T00:05:59.342Z,10.87
2019-05-18T00:06:59.324Z,10.81
2019-05-18T00:07:59.305Z,10.89
2019-05-18T00:08:59.271Z,10.94
2019-05-18T00:09:59.248Z,10.81
2019-05-18T00:10:59.233Z,10.81
2019-05-18T00:11:59.212Z,10.96
2019-05-18T00:12:59.194Z,10.90
2019-05-18T00:13:59.180Z,10.83
2019-05-18T00:14:59.156Z,10.76
2019-05-18T00:15:59.138Z,10.81
2019-05-18T00:16:59.125Z,10.71
2019-05-18T00:17:59.104Z,10.72
2019-05-18T00:18:59.087Z,10.79
2019-05-18T00:19:59.069Z,10.76
2019-05-18T00:20:59.048Z,10.74
2019-05-18T00:21:59.030Z,10.81
2019-05-18T00:22:59.015Z,10.72
2019-05-18T00:23:59.004Z,10.76
2019-05-18T00:24:58.989Z,10.71
2019-05-18T00:25:58.958Z,10.66
2019-05-18T00:26:58.942Z,10.63
2019-05-18T00:27:58.920Z,10.63
2019-05-18T00:28:58.903Z,10.63
2019-05-18T00:29:58.883Z,10.60
2019-05-18T00:30:58.868Z,10.61
2019-05-18T00:31:58.848Z,10.63
2019-05-18T00:32:58.831Z,10.69
2019-05-18T00:33:58.817Z,10.67
2019-05-18T00:34:58.793Z,10.63
2019-05-18T00:35:58.775Z,10.63
2019-05-18T00:36:58.760Z,10.64
2019-05-18T00:37:58.742Z,10.60
2019-05-18T00:38:58.726Z,10.56
2019-05-18T00:39:58.705Z,10.56
2019-05-18T00:40:58.684Z,10.54
2019-05-18T00:41:58.667Z,10.60
2019-05-18T00:42:58.655Z,10.51
2019-05-18T00:43:58.630Z,10.54
2019-05-18T00:44:58.624Z,10.54
2019-05-18T00:45:58.594Z,10.41
2019-05-18T00:46:58.577Z,10.49
2019-05-18T00:47:58.557Z,10.51
2019-05-18T00:48:58.538Z,10.44
2019-05-18T00:49:58.519Z,10.54
2019-05-18T00:50:58.501Z,10.54
2019-05-18T00:51:58.485Z,10.47
2019-05-18T00:52:58.465Z,10.51
2019-05-18T00:53:58.448Z,10.51
2019-05-18T00:54:58.428Z,10.49
2019-05-18T00:55:58.417Z,10.47
2019-05-18T00:56:58.393Z,10.47
2019-05-18T00:57:58.374Z,10.49
2019-05-18T00:58:58.374Z,10.47
2019-05-18T00:59:58.341Z,10.51
2019-05-18T01:00:58.324Z,10.44
2019-05-18T01:01:58.303Z,10.39
2019-05-18T01:02:58.285Z,10.41
2019-05-18T01:03:58.265Z,10.42
2019-05-18T01:04:58.255Z,10.49
2019-05-18T01:05:58.231Z,10.45
2019-05-18T01:06:58.215Z,10.38
2019-05-18T01:07:58.192Z,10.41
2019-05-18T01:08:58.174Z,10.37
2019-05-18T01:09:58.157Z,10.37
2019-05-18T01:10:58.140Z,10.32
2019-05-18T01:11:58.119Z,10.27
2019-05-18T01:12:58.106Z,10.31
2019-05-18T01:13:58.081Z,10.24
2019-05-18T01:14:58.067Z,10.26
2019-05-18T01:15:58.045Z,10.24
2019-05-18T01:16:58.030Z,10.31
2019-05-18T01:18:01.433Z,10.20
2019-05-18T01:18:57.990Z,10.31
2019-05-18T01:19:57.979Z,10.27
2019-05-18T01:20:57.960Z,10.32
2019-05-18T01:21:57.939Z,10.17
2019-05-18T01:22:57.919Z,10.20
2019-05-18T01:23:57.899Z,10.19
2019-05-18T01:24:57.880Z,10.16
2019-05-18T01:25:57.865Z,10.27
2019-05-18T01:26:57.843Z,10.23
2019-05-18T01:27:57.825Z,10.26
2019-05-18T01:28:57.808Z,10.19
2019-05-18T01:29:57.791Z,10.29
2019-05-18T01:30:57.770Z,10.20
2019-05-18T01:31:57.752Z,10.20
2019-05-18T01:32:57.733Z,10.23
2019-05-18T01:33:57.717Z,10.20
2019-05-18T01:34:57.696Z,10.29
2019-05-18T01:35:57.682Z,10.19
2019-05-18T01:36:57.662Z,10.23
2019-05-18T01:37:57.641Z,10.22
2019-05-18T01:38:57.627Z,10.16
2019-05-18T01:39:57.605Z,10.17
2019-05-18T01:40:57.591Z,10.16
2019-05-18T01:41:57.570Z,10.32
2019-05-18T01:42:57.551Z,10.22
2019-05-18T01:43:57.531Z,10.34
2019-05-18T01:44:57.515Z,10.16
2019-05-18T01:45:57.494Z,10.19
2019-05-18T01:46:57.477Z,10.22
2019-05-18T01:48:12.287Z,10.19
2019-05-18T01:48:57.442Z,10.17
2019-05-18T01:49:57.425Z,10.19
2019-05-18T01:50:57.406Z,10.20
2019-05-18T01:51:57.387Z,10.22
2019-05-18T01:52:57.367Z,10.20
2019-05-18T01:53:57.347Z,10.22
2019-05-18T01:54:57.332Z,10.17
2019-05-18T01:55:57.310Z,10.13
2019-05-18T01:56:57.293Z,10.16
2019-05-18T01:57:57.274Z,10.14
2019-05-18T01:58:57.259Z,10.13
2019-05-18T01:59:57.239Z,10.04
2019-05-18T02:00:57.218Z,9.99
2019-05-18T02:01:57.211Z,10.12
2019-05-18T02:02:57.184Z,10.02
2019-05-18T02:03:57.163Z,9.99
2019-05-18T02:04:57.151Z,10.01
2019-05-18T02:05:57.127Z,10.02
2019-05-18T02:06:57.107Z,9.95
2019-05-18T02:07:57.089Z,9.95
2019-05-18T02:08:57.073Z,9.94
2019-05-18T02:09:57.051Z,9.96
2019-05-18T02:10:57.034Z,9.98
2019-05-18T02:11:57.047Z,9.87
2019-05-18T02:12:57.002Z,9.91
2019-05-18T02:13:56.976Z,9.91
2019-05-18T02:14:56.958Z,9.81
2019-05-18T02:15:56.943Z,9.86
2019-05-18T02:16:56.921Z,9.88
2019-05-18T02:17:56.902Z,9.80
2019-05-18T02:18:56.884Z,9.90
2019-05-18T02:19:56.867Z,9.84
2019-05-18T02:20:56.847Z,9.91
2019-05-18T02:21:56.834Z,9.96
2019-05-18T02:22:56.809Z,9.98
2019-05-18T02:23:56.792Z,9.98
2019-05-18T02:24:56.773Z,9.95
2019-05-18T02:25:56.753Z,10.05
2019-05-18T02:26:56.743Z,10.02
2019-05-18T02:27:56.717Z,9.91
2019-05-18T02:28:56.700Z,9.87
2019-05-18T02:29:56.679Z,9.88
2019-05-18T02:30:56.662Z,9.91
2019-05-18T02:31:56.648Z,9.83
2019-05-18T02:32:56.626Z,9.90
2019-05-18T02:33:56.607Z,9.87
2019-05-18T02:34:56.589Z,9.91
2019-05-18T02:35:56.573Z,9.80
2019-05-18T02:36:56.557Z,9.77
2019-05-18T02:37:56.531Z,9.81
2019-05-18T02:38:56.516Z,9.80
2019-05-18T02:39:56.497Z,9.84
2019-05-18T02:40:56.495Z,9.79
2019-05-18T02:41:56.460Z,9.90
2019-05-18T02:42:56.441Z,9.91
2019-05-18T02:43:56.421Z,9.80
2019-05-18T02:44:56.408Z,9.90
2019-05-18T02:45:56.381Z,9.88
2019-05-18T02:46:56.364Z,9.95
2019-05-18T02:47:56.346Z,9.96
2019-05-18T02:48:56.327Z,9.88
2019-05-18T02:49:56.315Z,9.91
2019-05-18T02:50:56.301Z,9.90
2019-05-18T02:51:56.296Z,9.90
2019-05-18T02:52:56.253Z,9.90
2019-05-18T02:53:56.234Z,9.87
2019-05-18T02:54:56.217Z,9.88
2019-05-18T02:55:56.197Z,9.90
2019-05-18T02:56:56.178Z,9.90
2019-05-18T02:57:56.159Z,9.86
2019-05-18T02:58:56.143Z,9.86
2019-05-18T02:59:56.122Z,9.86
2019-05-18T03:00:56.106Z,9.83
2019-05-18T03:01:56.087Z,9.90
2019-05-18T03:02:56.067Z,9.91
2019-05-18T03:03:56.050Z,9.84
2019-05-18T03:04:56.031Z,9.91
2019-05-18T03:05:56.010Z,9.94
2019-05-18T03:06:55.996Z,9.87
2019-05-18T03:07:55.975Z,9.95
2019-05-18T03:08:55.964Z,10.04
2019-05-18T03:09:55.938Z,10.02
2019-05-18T03:10:55.921Z,9.90
2019-05-18T03:11:55.904Z,9.96
2019-05-18T03:12:55.884Z,9.96
2019-05-18T03:13:55.864Z,10.06
2019-05-18T03:14:55.850Z,9.98
2019-05-18T03:15:55.828Z,9.98
2019-05-18T03:16:55.814Z,10.06
2019-05-18T03:17:55.790Z,10.02
2019-05-18T03:19:07.719Z,10.02
2019-05-18T03:19:55.753Z,10.04
2019-05-18T03:20:55.734Z,9.99
2019-05-18T03:21:55.723Z,10.09
2019-05-18T03:22:55.764Z,10.01
2019-05-18T03:23:55.679Z,10.08
2019-05-18T03:24:55.663Z,10.12
2019-05-18T03:25:55.644Z,9.99
2019-05-18T03:26:55.628Z,10.02
2019-05-18T03:27:55.608Z,10.09
2019-05-18T03:28:55.589Z,10.08
2019-05-18T03:29:55.570Z,10.08
2019-05-18T03:30:55.569Z,10.01
2019-05-18T03:31:55.532Z,9.99
2019-05-18T03:32:55.532Z,9.98
2019-05-18T03:33:55.495Z,10.01
2019-05-18T03:34:55.505Z,10.04
2019-05-18T03:35:55.471Z,10.05
2019-05-18T03:36:55.440Z,10.04
2019-05-18T03:37:55.422Z,9.99
2019-05-18T03:38:55.403Z,10.05
2019-05-18T03:39:55.391Z,10.05
2019-05-18T03:40:55.375Z,9.98
2019-05-18T03:41:55.353Z,10.02
2019-05-18T03:42:55.332Z,10.08
2019-05-18T03:43:55.310Z,10.01
2019-05-18T03:44:55.292Z,9.99
2019-05-18T03:45:55.274Z,10.02
2019-05-18T03:46:55.258Z,10.04
2019-05-18T03:47:55.243Z,10.04
2019-05-18T03:48:55.222Z,9.98
2019-05-18T03:49:55.201Z,9.99
2019-05-18T03:50:55.185Z,10.04
2019-05-18T03:51:55.172Z,9.94
2019-05-18T03:52:55.145Z,10.02
2019-05-18T03:53:55.129Z,9.98
2019-05-18T03:54:55.110Z,9.99
2019-05-18T03:55:55.090Z,10.01
2019-05-18T03:56:55.073Z,9.99
2019-05-18T03:57:55.052Z,10.02
2019-05-18T03:58:55.035Z,9.99
2019-05-18T03:59:55.018Z,9.99
2019-05-18T04:00:55.000Z,10.08
2019-05-18T04:01:54.979Z,10.01
2019-05-18T04:02:54.963Z,9.94
2019-05-18T04:03:54.945Z,9.95
2019-05-18T04:04:54.929Z,9.90
2019-05-18T04:05:54.908Z,9.90
2019-05-18T04:06:54.887Z,9.98
2019-05-18T04:07:54.873Z,9.90
2019-05-18T04:08:54.853Z,9.94
2019-05-18T04:09:54.832Z,9.90
2019-05-18T04:10:54.817Z,9.96
2019-05-18T04:11:54.800Z,9.99
2019-05-18T04:12:54.782Z,9.94
2019-05-18T04:13:54.766Z,10.02
2019-05-18T04:14:54.745Z,10.01
2019-05-18T04:15:54.725Z,10.08
2019-05-18T04:16:54.705Z,10.08
2019-05-18T04:17:54.684Z,10.06
2019-05-18T04:18:54.668Z,10.13
2019-05-18T04:19:54.651Z,10.05
2019-05-18T04:20:54.635Z,9.98
2019-05-18T04:21:54.613Z,9.91
2019-05-18T04:22:54.594Z,10.04
2019-05-18T04:23:54.579Z,9.99
2019-05-18T04:24:54.558Z,10.01
2019-05-18T04:25:54.538Z,10.09
2019-05-18T04:26:54.522Z,10.09
2019-05-18T04:27:54.502Z,10.14
2019-05-18T04:28:54.483Z,10.05
2019-05-18T04:29:54.465Z,10.13
2019-05-18T04:30:54.445Z,10.04
2019-05-18T04:31:54.449Z,10.13
2019-05-18T04:32:54.409Z,10.14
2019-05-18T04:33:54.424Z,10.14
2019-05-18T04:34:54.372Z,10.20
2019-05-18T04:35:54.353Z,10.17
2019-05-18T04:36:54.339Z,10.27
2019-05-18T04:37:54.317Z,10.34
2019-05-18T04:38:54.300Z,10.19
2019-05-18T04:39:54.286Z,10.32
2019-05-18T04:40:54.267Z,10.31
2019-05-18T04:41:54.257Z,10.26
2019-05-18T04:42:54.226Z,10.27
2019-05-18T04:43:54.209Z,10.22
2019-05-18T04:44:54.190Z,10.16
2019-05-18T04:45:54.171Z,10.29
2019-05-18T04:46:54.155Z,10.29
2019-05-18T04:47:54.136Z,10.35
2019-05-18T04:48:54.122Z,10.34
2019-05-18T04:50:04.506Z,10.37
2019-05-18T04:50:54.084Z,10.32
2019-05-18T04:51:54.064Z,10.35
2019-05-18T04:52:54.045Z,10.45
2019-05-18T04:53:54.025Z,10.45
2019-05-18T04:54:54.018Z,10.54
2019-05-18T04:55:53.991Z,10.51
2019-05-18T04:56:53.972Z,10.53
2019-05-18T04:57:53.956Z,10.54
2019-05-18T04:58:53.939Z,10.51
2019-05-18T04:59:53.921Z,10.64
2019-05-18T05:00:53.900Z,10.57
2019-05-18T05:01:53.885Z,10.66
2019-05-18T05:02:53.867Z,10.60
2019-05-18T05:03:53.852Z,10.63
2019-05-18T05:04:56.610Z,10.71
2019-05-18T05:05:53.813Z,10.67
2019-05-18T05:06:53.792Z,10.79
2019-05-18T05:07:53.780Z,10.75
2019-05-18T05:08:53.756Z,10.71
2019-05-18T05:09:53.740Z,10.76
2019-05-18T05:10:53.721Z,10.79
2019-05-18T05:11:53.704Z,10.78
2019-05-18T05:12:53.692Z,10.97
2019-05-18T05:13:53.669Z,10.82
2019-05-18T05:14:53.649Z,10.83
2019-05-18T05:15:53.633Z,10.87
2019-05-18T05:16:53.619Z,10.94
2019-05-18T05:17:53.596Z,10.91
2019-05-18T05:18:53.581Z,10.99
2019-05-18T05:19:53.561Z,11.03
2019-05-18T05:20:53.546Z,11.04
2019-05-18T05:21:53.536Z,11.08
2019-05-18T05:22:53.508Z,11.07
2019-05-18T05:23:53.493Z,11.07
2019-05-18T05:24:53.474Z,11.01
2019-05-18T05:25:53.458Z,11.08
2019-05-18T05:26:53.441Z,11.15
2019-05-18T05:27:53.421Z,11.19
2019-05-18T05:28:53.403Z,11.21
2019-05-18T05:29:53.385Z,11.27
2019-05-18T05:30:53.369Z,11.33
2019-05-18T05:31:53.354Z,11.42
2019-05-18T05:32:53.345Z,11.50
2019-05-18T05:33:53.316Z,11.47
2019-05-18T05:34:53.301Z,11.57
2019-05-18T05:35:53.285Z,11.55
2019-05-18T05:36:53.271Z,11.67
2019-05-18T05:37:53.251Z,11.69
2019-05-18T05:38:53.237Z,11.76
2019-05-18T05:39:53.215Z,11.73
2019-05-18T05:40:53.198Z,11.77
2019-05-18T05:41:53.181Z,11.75
2019-05-18T05:42:53.163Z,11.88
2019-05-18T05:43:53.149Z,11.91
2019-05-18T05:44:53.131Z,11.98
2019-05-18T05:45:53.118Z,12.13
2019-05-18T05:46:53.111Z,12.11
2019-05-18T05:47:53.080Z,12.11
2019-05-18T05:48:53.066Z,12.13
2019-05-18T05:49:53.058Z,12.13
2019-05-18T05:50:53.031Z,12.18
2019-05-18T05:51:53.015Z,12.06
2019-05-18T05:52:52.997Z,12.03
2019-05-18T05:53:52.985Z,12.16
2019-05-18T05:54:52.966Z,12.13
2019-05-18T05:55:52.949Z,12.13
2019-05-18T05:56:52.932Z,12.16
2019-05-18T05:57:52.917Z,12.31
2019-05-18T05:58:52.900Z,12.27
2019-05-18T05:59:52.882Z,12.35
2019-05-18T06:00:52.869Z,12.44
2019-05-18T06:01:52.850Z,12.43
2019-05-18T06:02:52.859Z,12.44
2019-05-18T06:03:52.820Z,12.49
2019-05-18T06:04:52.801Z,12.50
2019-05-18T06:05:52.789Z,12.62
2019-05-18T06:06:52.771Z,12.72
2019-05-18T06:07:52.799Z,12.75
2019-05-18T06:08:52.737Z,12.79
2019-05-18T06:09:52.740Z,12.79
2019-05-18T06:10:52.712Z,12.83
2019-05-18T06:11:52.701Z,12.95
2019-05-18T06:12:52.672Z,13.05
2019-05-18T06:13:52.657Z,12.98
2019-05-18T06:14:52.639Z,13.15
2019-05-18T06:15:52.642Z,13.15
2019-05-18T06:16:52.613Z,13.07
2019-05-18T06:17:52.591Z,13.02
2019-05-18T06:18:52.577Z,13.19
2019-05-18T06:19:52.563Z,13.07
2019-05-18T06:20:52.550Z,13.13
2019-05-18T06:21:52.584Z,13.22
2019-05-18T06:22:52.516Z,13.26
2019-05-18T06:23:52.498Z,13.16
2019-05-18T06:24:52.484Z,13.25
2019-05-18T06:25:52.469Z,13.30
2019-05-18T06:26:52.450Z,13.22
2019-05-18T06:27:52.445Z,13.36
2019-05-18T06:28:52.424Z,13.35
2019-05-18T06:29:52.425Z,13.38
2019-05-18T06:30:52.392Z,13.38
2019-05-18T06:31:52.379Z,13.41
2019-05-18T06:32:52.361Z,13.46
2019-05-18T06:33:52.343Z,13.45
2019-05-18T06:34:52.330Z,13.50
2019-05-18T06:35:52.313Z,13.53
2019-05-18T06:36:55.695Z,13.61
2019-05-18T06:37:52.288Z,13.72
2019-05-18T06:38:52.265Z,13.72
2019-05-18T06:39:52.253Z,13.81
2019-05-18T06:40:52.278Z,13.87
2019-05-18T06:41:52.217Z,13.94
2019-05-18T06:42:52.205Z,13.93
2019-05-18T06:43:52.187Z,14.07
2019-05-18T06:44:52.169Z,14.08
2019-05-18T06:45:52.156Z,14.21
2019-05-18T06:46:52.139Z,14.18
2019-05-18T06:47:52.124Z,14.14
2019-05-18T06:48:52.117Z,14.26
2019-05-18T06:49:52.094Z,14.29
2019-05-18T06:51:06.042Z,14.29
2019-05-18T06:51:52.062Z,14.30
2019-05-18T06:52:52.048Z,14.33
2019-05-18T06:53:52.039Z,14.40
2019-05-18T06:54:52.021Z,14.55
2019-05-18T06:55:52.006Z,14.62
2019-05-18T06:56:51.993Z,14.84
2019-05-18T06:57:52.005Z,14.89
2019-05-18T06:58:51.960Z,14.85
2019-05-18T06:59:51.945Z,14.86
2019-05-18T07:00:51.932Z,14.94
2019-05-18T07:01:51.914Z,15.01
2019-05-18T07:02:51.902Z,15.13
2019-05-18T07:03:51.900Z,15.19
2019-05-18T07:04:51.870Z,15.24
2019-05-18T07:05:51.855Z,15.22
2019-05-18T07:06:51.845Z,15.18
2019-05-18T07:07:51.828Z,15.28
2019-05-18T07:08:51.814Z,15.26
2019-05-18T07:09:51.798Z,15.29
2019-05-18T07:10:51.784Z,15.31
2019-05-18T07:11:51.775Z,15.37
2019-05-18T07:12:51.756Z,15.26
2019-05-18T07:13:51.742Z,15.24
2019-05-18T07:14:51.730Z,15.17
2019-05-18T07:15:51.713Z,15.22
2019-05-18T07:16:51.701Z,15.42
2019-05-18T07:17:51.683Z,15.31
2019-05-18T07:18:51.670Z,15.46
2019-05-18T07:19:51.655Z,15.44
2019-05-18T07:20:51.645Z,15.46
2019-05-18T07:21:51.628Z,15.46
2019-05-18T07:22:51.612Z,15.51
2019-05-18T07:23:51.598Z,15.44
2019-05-18T07:24:51.584Z,15.46
2019-05-18T07:25:51.571Z,15.40
2019-05-18T07:26:51.558Z,15.51
2019-05-18T07:27:51.540Z,15.50
2019-05-18T07:28:51.529Z,15.54
2019-05-18T07:29:51.518Z,15.58
2019-05-18T07:30:51.502Z,15.65
2019-05-18T07:31:51.485Z,15.55
2019-05-18T07:32:51.471Z,15.65
2019-05-18T07:33:51.462Z,15.73
2019-05-18T07:34:51.445Z,15.75
2019-05-18T07:35:51.429Z,15.80
2019-05-18T07:36:51.425Z,15.95
2019-05-18T07:37:51.402Z,16.13
2019-05-18T07:38:51.387Z,15.98
2019-05-18T07:39:51.375Z,16.13
2019-05-18T07:40:51.361Z,16.24
2019-05-18T07:41:51.352Z,16.35
2019-05-18T07:42:51.342Z,16.54
2019-05-18T07:43:51.327Z,16.60
2019-05-18T07:44:51.311Z,17.00
2019-05-18T07:45:51.303Z,17.09
2019-05-18T07:46:51.292Z,17.19
2019-05-18T07:47:51.276Z,17.24
2019-05-18T07:48:51.263Z,17.16
2019-05-18T07:49:51.256Z,17.42
2019-05-18T07:50:51.242Z,17.63
2019-05-18T07:51:51.231Z,17.80
2019-05-18T07:52:51.225Z,17.86
2019-05-18T07:53:51.211Z,18.16
2019-05-18T07:54:51.202Z,18.50
2019-05-18T07:55:51.198Z,18.56
2019-05-18T07:56:51.186Z,18.60
2019-05-18T07:57:51.178Z,18.84
2019-05-18T07:58:51.170Z,18.80
2019-05-18T07:59:51.160Z,18.69
2019-05-18T08:00:51.155Z,18.83
2019-05-18T08:01:51.142Z,19.15
2019-05-18T08:02:51.136Z,19.47
2019-05-18T08:03:51.131Z,19.74
2019-05-18T08:04:51.122Z,19.70
2019-05-18T08:05:51.122Z,19.89
2019-05-18T08:06:51.120Z,19.76
2019-05-18T08:07:51.113Z,19.81
2019-05-18T08:08:51.101Z,19.44
2019-05-18T08:09:51.106Z,19.21
2019-05-18T08:10:51.095Z,19.30
2019-05-18T08:11:51.094Z,19.34
2019-05-18T08:12:51.070Z,19.30
2019-05-18T08:13:51.058Z,19.22
2019-05-18T08:14:51.049Z,19.58
2019-05-18T08:15:51.041Z,19.77
2019-05-18T08:16:51.035Z,19.77
2019-05-18T08:17:51.030Z,19.84
2019-05-18T08:18:51.025Z,19.84
2019-05-18T08:19:51.018Z,19.81
2019-05-18T08:20:51.013Z,20.11
2019-05-18T08:21:53.490Z,20.29
2019-05-18T08:22:51.000Z,20.32
2019-05-18T08:23:50.993Z,20.28
2019-05-18T08:24:50.989Z,20.35
2019-05-18T08:25:50.982Z,20.43
2019-05-18T08:26:50.978Z,20.32
2019-05-18T08:27:50.971Z,20.02
2019-05-18T08:28:50.964Z,19.84
2019-05-18T08:29:50.958Z,19.81
2019-05-18T08:30:50.953Z,19.91
2019-05-18T08:31:50.946Z,20.16
2019-05-18T08:32:50.943Z,20.31
2019-05-18T08:33:50.931Z,20.09
2019-05-18T08:34:50.922Z,19.99
2019-05-18T08:35:50.942Z,19.94
2019-05-18T08:36:50.908Z,19.73
2019-05-18T08:37:50.903Z,19.88
2019-05-18T08:38:50.894Z,19.91
2019-05-18T08:39:50.890Z,19.85
2019-05-18T08:40:50.882Z,19.77
2019-05-18T08:41:50.872Z,19.71
2019-05-18T08:42:50.862Z,19.64
2019-05-18T08:43:50.887Z,19.33
2019-05-18T08:44:50.846Z,19.43
2019-05-18T08:45:50.865Z,19.24
2019-05-18T08:46:50.826Z,19.02
2019-05-18T08:47:50.818Z,18.96
2019-05-18T08:48:50.810Z,18.98
2019-05-18T08:49:50.796Z,18.90
2019-05-18T08:50:50.789Z,18.92
2019-05-18T08:51:50.781Z,18.99
2019-05-18T08:52:50.767Z,18.85
2019-05-18T08:53:50.759Z,18.77
2019-05-18T08:54:50.748Z,18.69
2019-05-18T08:55:50.736Z,18.63
2019-05-18T08:56:50.723Z,18.50
2019-05-18T08:57:50.711Z,18.40
2019-05-18T08:58:50.706Z,18.23
2019-05-18T08:59:50.689Z,18.18
2019-05-18T09:00:50.681Z,17.98
2019-05-18T09:01:50.666Z,17.95
2019-05-18T09:02:50.661Z,17.85
2019-05-18T09:03:50.646Z,17.82
2019-05-18T09:04:50.635Z,17.70
2019-05-18T09:05:50.625Z,17.72
2019-05-18T09:06:50.608Z,17.72
2019-05-18T09:07:50.597Z,17.80
2019-05-18T09:08:50.584Z,17.86
2019-05-18T09:09:50.574Z,17.83
2019-05-18T09:10:50.561Z,17.86
2019-05-18T09:11:50.561Z,17.85
2019-05-18T09:12:50.533Z,17.87
2019-05-18T09:13:50.521Z,18.03
2019-05-18T09:14:50.582Z,18.03
2019-05-18T09:15:50.507Z,18.14
2019-05-18T09:16:50.485Z,18.30
2019-05-18T09:17:50.475Z,18.45
2019-05-18T09:18:50.465Z,18.66
2019-05-18T09:19:50.454Z,18.96
2019-05-18T09:20:50.439Z,19.00
2019-05-18T09:21:50.430Z,19.11
2019-05-18T09:22:50.419Z,19.29
2019-05-18T09:23:50.408Z,19.51
2019-05-18T09:24:50.429Z,19.49
2019-05-18T09:25:50.392Z,19.47
2019-05-18T09:26:50.377Z,19.58
2019-05-18T09:27:50.371Z,19.71
2019-05-18T09:28:50.362Z,20.06
2019-05-18T09:29:50.348Z,20.31
2019-05-18T09:30:50.341Z,20.62
2019-05-18T09:31:50.334Z,20.67
2019-05-18T09:32:50.322Z,20.60
2019-05-18T09:33:50.318Z,20.70
2019-05-18T09:34:50.304Z,20.60
2019-05-18T09:35:50.299Z,20.50
2019-05-18T09:36:50.293Z,20.54
2019-05-18T09:37:50.289Z,20.57
2019-05-18T09:38:50.268Z,20.70
2019-05-18T09:39:50.264Z,20.80
2019-05-18T09:40:50.252Z,20.67
2019-05-18T09:41:50.240Z,20.78
2019-05-18T09:42:50.232Z,20.92
2019-05-18T09:43:50.222Z,20.72
2019-05-18T09:44:50.216Z,20.57
2019-05-18T09:45:50.203Z,20.77
2019-05-18T09:46:50.195Z,20.77
2019-05-18T09:47:50.191Z,20.98
2019-05-18T09:48:50.181Z,21.40
2019-05-18T09:49:50.170Z,21.40
2019-05-18T09:50:50.163Z,21.32
2019-05-18T09:51:50.156Z,21.35
2019-05-18T09:52:50.153Z,21.55
2019-05-18T09:53:51.844Z,21.61
2019-05-18T09:54:50.134Z,21.62
2019-05-18T09:55:50.126Z,21.75
2019-05-18T09:56:50.119Z,21.80
2019-05-18T09:57:50.111Z,22.08
2019-05-18T09:58:50.105Z,22.26
2019-05-18T09:59:50.100Z,22.35
2019-05-18T10:00:50.091Z,22.57
2019-05-18T10:01:50.084Z,22.50
2019-05-18T10:02:50.099Z,22.60
2019-05-18T10:03:50.069Z,22.70
2019-05-18T10:04:50.168Z,22.65
2019-05-18T10:05:50.056Z,22.79
2019-05-18T10:06:50.048Z,22.93
2019-05-18T10:07:50.041Z,23.25
2019-05-18T10:08:50.038Z,23.41
2019-05-18T10:09:50.029Z,23.81
2019-05-18T10:10:50.024Z,24.20
2019-05-18T10:11:50.020Z,24.24
2019-05-18T10:12:50.027Z,24.68
2019-05-18T10:13:50.009Z,24.86
2019-05-18T10:14:50.007Z,24.73
2019-05-18T10:15:49.999Z,24.76
2019-05-18T10:16:49.993Z,24.56
2019-05-18T10:17:49.989Z,24.73
2019-05-18T10:18:49.982Z,24.77
2019-05-18T10:19:49.979Z,24.89
2019-05-18T10:20:49.973Z,25.20
2019-05-18T10:21:49.975Z,25.39
2019-05-18T10:22:55.846Z,25.47
2019-05-18T10:23:49.962Z,25.44
2019-05-18T10:24:49.959Z,25.28
2019-05-18T10:25:49.953Z,25.41
2019-05-18T10:26:49.950Z,25.43
2019-05-18T10:27:49.993Z,25.36
2019-05-18T10:28:49.942Z,25.50
2019-05-18T10:29:49.983Z,25.43
2019-05-18T10:30:49.938Z,25.72
2019-05-18T10:31:49.928Z,25.80
2019-05-18T10:32:49.929Z,25.81
2019-05-18T10:33:49.937Z,25.84
2019-05-18T10:34:49.917Z,25.69
2019-05-18T10:35:49.913Z,25.61
2019-05-18T10:36:49.914Z,25.62
2019-05-18T10:37:49.909Z,25.68
2019-05-18T10:38:49.910Z,25.73
2019-05-18T10:39:49.898Z,25.93
2019-05-18T10:40:49.898Z,25.87
2019-05-18T10:41:49.893Z,25.73
2019-05-18T10:42:49.889Z,25.54
2019-05-18T10:43:49.884Z,25.71
2019-05-18T10:44:49.876Z,25.98
2019-05-18T10:45:49.873Z,26.19
2019-05-18T10:46:49.867Z,26.25
2019-05-18T10:47:49.866Z,26.24
2019-05-18T10:48:49.866Z,26.32
2019-05-18T10:49:49.859Z,26.26
2019-05-18T10:50:49.878Z,25.91
2019-05-18T10:51:49.853Z,25.75
2019-05-18T10:52:49.842Z,25.32
2019-05-18T10:53:49.839Z,24.92
2019-05-18T10:54:49.835Z,24.79
2019-05-18T10:55:49.848Z,24.60
2019-05-18T10:56:49.836Z,24.94
2019-05-18T10:57:49.825Z,25.18
2019-05-18T10:58:49.818Z,25.44
2019-05-18T10:59:49.809Z,25.73
2019-05-18T11:00:49.862Z,26.05
2019-05-18T11:01:49.805Z,25.98
2019-05-18T11:02:49.798Z,25.98
2019-05-18T11:03:49.791Z,25.71
2019-05-18T11:04:49.831Z,25.24
2019-05-18T11:05:49.802Z,25.32
2019-05-18T11:06:49.797Z,25.61
2019-05-18T11:07:49.775Z,25.76
2019-05-18T11:08:49.766Z,26.29
2019-05-18T11:09:49.768Z,26.25
2019-05-18T11:10:49.756Z,26.21
2019-05-18T11:11:49.749Z,26.28
2019-05-18T11:12:49.746Z,26.48
2019-05-18T11:13:49.757Z,26.59
2019-05-18T11:14:49.737Z,26.58
2019-05-18T11:15:49.772Z,26.84
2019-05-18T11:16:49.731Z,27.18
2019-05-18T11:17:49.727Z,27.00
2019-05-18T11:18:49.722Z,27.02
2019-05-18T11:19:49.726Z,26.95
2019-05-18T11:20:49.715Z,27.06
2019-05-18T11:21:49.731Z,27.18
2019-05-18T11:22:49.706Z,27.39
2019-05-18T11:23:49.709Z,27.45
2019-05-18T11:24:49.705Z,27.54
2019-05-18T11:25:49.697Z,27.59
2019-05-18T11:26:49.697Z,27.24
2019-05-18T11:27:49.709Z,27.45
2019-05-18T11:28:49.696Z,27.43
2019-05-18T11:29:49.720Z,27.67
2019-05-18T11:30:49.685Z,27.95
2019-05-18T11:31:49.678Z,28.20
2019-05-18T11:32:49.677Z,28.36
2019-05-18T11:33:49.678Z,28.38
2019-05-18T11:34:49.684Z,28.27
2019-05-18T11:35:49.675Z,27.98
2019-05-18T11:36:49.716Z,27.98
2019-05-18T11:37:49.660Z,28.04
2019-05-18T11:38:49.879Z,27.96
2019-05-18T11:39:49.656Z,28.08
2019-05-18T11:40:49.664Z,27.83
2019-05-18T11:41:49.657Z,27.78
2019-05-18T11:42:49.652Z,27.45
2019-05-18T11:43:49.646Z,27.14
2019-05-18T11:44:49.644Z,26.92
2019-05-18T11:45:49.643Z,26.74
2019-05-18T11:46:49.633Z,27.08
2019-05-18T11:47:49.639Z,27.05
2019-05-18T11:48:49.861Z,26.87
2019-05-18T11:49:49.633Z,26.95
2019-05-18T11:50:49.621Z,27.05
2019-05-18T11:51:49.664Z,27.00
2019-05-18T11:52:49.623Z,27.02
2019-05-18T11:53:57.796Z,26.93
2019-05-18T11:54:49.605Z,26.96
2019-05-18T11:55:49.598Z,26.84
2019-05-18T11:56:49.607Z,26.62
2019-05-18T11:57:49.588Z,26.59
2019-05-18T11:58:49.597Z,26.48
2019-05-18T11:59:49.593Z,26.28
2019-05-18T12:00:49.582Z,26.00
2019-05-18T12:01:49.571Z,26.21
2019-05-18T12:02:49.574Z,26.26
2019-05-18T12:03:49.562Z,26.22
2019-05-18T12:04:49.565Z,26.00
2019-05-18T12:05:49.582Z,25.94
2019-05-18T12:06:49.600Z,25.95
2019-05-18T12:07:49.548Z,26.03
2019-05-18T12:08:49.636Z,26.32
2019-05-18T12:09:49.553Z,26.61
2019-05-18T12:10:49.531Z,26.43
2019-05-18T12:11:49.525Z,26.24
2019-05-18T12:12:49.526Z,26.34
2019-05-18T12:13:49.529Z,26.46
2019-05-18T12:14:49.512Z,26.56
2019-05-18T12:15:49.555Z,26.58
2019-05-18T12:16:49.532Z,26.47
2019-05-18T12:17:49.497Z,26.47
2019-05-18T12:18:49.491Z,26.31
2019-05-18T12:19:49.484Z,26.43
2019-05-18T12:20:49.479Z,26.39
2019-05-18T12:21:49.484Z,26.29
2019-05-18T12:22:49.493Z,26.24
2019-05-18T12:23:49.462Z,26.25
2019-05-18T12:24:49.457Z,26.00
2019-05-18T12:25:50.838Z,25.86
2019-05-18T12:26:49.473Z,25.72
2019-05-18T12:27:49.708Z,25.71
2019-05-18T12:28:49.436Z,25.69
2019-05-18T12:29:49.425Z,25.61
2019-05-18T12:30:49.421Z,25.62
2019-05-18T12:31:49.412Z,25.62
2019-05-18T12:32:49.405Z,25.72
2019-05-18T12:33:49.398Z,25.69
2019-05-18T12:34:49.392Z,25.50
2019-05-18T12:35:49.385Z,25.28
2019-05-18T12:36:49.384Z,25.25
2019-05-18T12:37:49.372Z,25.17
2019-05-18T12:38:49.365Z,25.09
2019-05-18T12:39:49.359Z,24.95
2019-05-18T12:40:49.348Z,25.01
2019-05-18T12:41:49.341Z,24.96
2019-05-18T12:42:49.336Z,24.91
2019-05-18T12:43:49.327Z,24.92
2019-05-18T12:44:49.333Z,24.83
2019-05-18T12:45:49.313Z,24.63
2019-05-18T12:46:49.312Z,24.41
2019-05-18T12:47:49.299Z,24.39
2019-05-18T12:48:49.294Z,24.41
2019-05-18T12:49:49.279Z,24.35
2019-05-18T12:50:49.271Z,24.21
2019-05-18T12:51:49.266Z,24.20
2019-05-18T12:52:49.255Z,24.13
2019-05-18T12:53:49.244Z,23.99
2019-05-18T12:54:49.238Z,23.86
2019-05-18T12:55:49.246Z,23.79